Time;durP1;ratioP1;P1;durP2;ratioP2;P2;SDS_P1;SDS_P2;PMS_P1;PMS_P2;Temp;Humidity;BMP_temperature;BMP_pressure;BME280_temperature;BME280_humidity;BME280_pressure;Samples;Min_cycle;Max_cycle;Signal;HPM_P1;HPM_P2
2021/09/28 00:00:29;;;;;;;9.50;4.10;;;11.30;22.50;;;;;;4426789;28;657570;-71
2021/09/28 00:03:18;;;;;;;12.47;4.90;;;11.30;27.30;;;;;;4445482;28;657904;-71
2021/09/28 00:06:06;;;;;;;9.20;4.23;;;11.20;28.50;;;;;;4419531;28;658806;-71
2021/09/28 00:08:53;;;;;;;8.37;3.93;;;11.20;30.00;;;;;;4426999;28;658642;-71
2021/09/28 00:11:41;;;;;;;14.37;4.50;;;11.20;34.00;;;;;;4444791;28;658731;-71
2021/09/28 00:14:28;;;;;;;9.33;4.13;;;11.20;37.60;;;;;;4422515;28;658840;-71
2021/09/28 00:17:16;;;;;;;11.40;3.93;;;11.10;37.30;;;;;;4445106;28;658474;-71
2021/09/28 00:20:06;;;;;;;14.03;4.10;;;11.10;38.30;;;;;;4423303;28;659088;-71
2021/09/28 00:22:54;;;;;;;11.80;4.43;;;11.10;45.10;;;;;;4425224;28;659174;-71
2021/09/28 00:25:42;;;;;;;7.30;4.07;;;11.00;45.90;;;;;;4445131;28;658792;-71
2021/09/28 00:28:30;;;;;;;10.90;4.27;;;11.00;56.10;;;;;;4423739;28;659094;-71
2021/09/28 00:31:18;;;;;;;10.00;4.50;;;10.90;63.90;;;;;;4431201;28;659106;-70
2021/09/28 00:34:05;;;;;;;10.80;4.23;;;10.90;77.20;;;;;;4449540;28;658225;-71
2021/09/28 00:36:54;;;;;;;12.07;4.37;;;10.90;71.70;;;;;;4426654;28;658958;-71
2021/09/28 00:39:42;;;;;;;11.83;4.10;;;10.90;78.80;;;;;;4443043;28;658674;-71
2021/09/28 00:42:29;;;;;;;11.23;4.27;;;10.80;77.90;;;;;;4415598;28;658985;-71
2021/09/28 00:45:17;;;;;;;10.73;4.50;;;10.80;74.70;;;;;;4430945;28;659239;-72
2021/09/28 00:48:05;;;;;;;10.57;4.13;;;10.80;73.00;;;;;;4407480;28;658815;-71
2021/09/28 00:50:53;;;;;;;18.77;5.20;;;10.80;79.40;;;;;;4425977;28;658661;-71
2021/09/28 00:53:42;;;;;;;11.03;4.23;;;10.70;78.70;;;;;;4403698;28;659753;-72
2021/09/28 00:56:30;;;;;;;9.97;4.03;;;10.70;83.40;;;;;;4405062;28;659738;-72
2021/09/28 00:59:18;;;;;;;13.30;3.93;;;10.70;89.00;;;;;;4432273;28;657599;-70
2021/09/28 01:02:06;;;;;;;10.87;4.37;;;10.60;82.30;;;;;;4430605;28;660211;-72
2021/09/28 01:04:53;;;;;;;11.40;4.10;;;10.60;93.00;;;;;;4420613;28;659543;-71
2021/09/28 01:07:41;;;;;;;11.10;4.43;;;10.60;95.40;;;;;;4440999;28;659981;-71
2021/09/28 01:10:30;;;;;;;11.97;3.87;;;10.50;95.50;;;;;;4407759;28;658505;-71
2021/09/28 01:13:18;;;;;;;6.50;3.70;;;10.50;99.90;;;;;;4423753;28;658571;-70
2021/09/28 01:16:10;;;;;;;10.10;4.10;;;10.40;99.90;;;;;;4435724;28;658588;-71
2021/09/28 01:18:58;;;;;;;10.37;3.73;;;10.40;99.90;;;;;;4394725;28;659752;-70
2021/09/28 01:21:47;;;;;;;9.20;4.13;;;10.30;99.90;;;;;;4428842;28;659580;-71
2021/09/28 01:24:35;;;;;;;8.70;4.10;;;10.30;99.90;;;;;;4409910;28;659041;-71
2021/09/28 01:27:23;;;;;;;8.47;3.77;;;10.30;99.90;;;;;;4433493;28;657270;-71
2021/09/28 01:30:11;;;;;;;9.67;4.17;;;10.20;99.90;;;;;;4434542;28;659219;-72
2021/09/28 01:32:59;;;;;;;13.00;4.50;;;10.20;99.90;;;;;;4416389;28;657542;-71
2021/09/28 01:35:46;;;;;;;10.57;4.63;;;10.20;99.90;;;;;;4430480;28;658883;-71
2021/09/28 01:38:35;;;;;;;12.83;4.20;;;10.20;99.90;;;;;;4414777;28;659753;-71
2021/09/28 01:41:23;;;;;;;6.83;3.97;;;10.20;99.90;;;;;;4428418;28;659242;-71
2021/09/28 01:44:11;;;;;;;9.37;3.90;;;10.20;99.90;;;;;;4450841;28;659145;-72
2021/09/28 01:46:59;;;;;;;8.43;3.97;;;10.20;99.90;;;;;;4428601;28;658003;-71
2021/09/28 01:49:46;;;;;;;10.00;4.10;;;10.10;99.90;;;;;;4444181;28;657810;-72
2021/09/28 01:52:34;;;;;;;14.20;4.20;;;10.10;99.90;;;;;;4424532;28;658927;-71
2021/09/28 01:55:23;;;;;;;12.67;4.00;;;10.00;99.90;;;;;;4446871;28;659271;-71
2021/09/28 01:58:11;;;;;;;9.90;4.13;;;10.00;99.90;;;;;;4422227;28;659640;-72
2021/09/28 02:00:58;;;;;;;8.90;4.17;;;10.00;99.90;;;;;;4427769;28;657477;-71
2021/09/28 02:03:46;;;;;;;12.03;4.37;;;9.90;99.90;;;;;;4448473;28;657866;-71
2021/09/28 02:06:39;;;;;;;9.10;4.17;;;9.90;99.90;;;;;;4429463;28;657614;-71
2021/09/28 02:09:27;;;;;;;10.87;4.30;;;9.80;99.90;;;;;;4426690;28;657010;-72
2021/09/28 02:12:15;;;;;;;7.67;3.80;;;9.80;99.90;;;;;;4427302;28;658071;-71
2021/09/28 02:15:03;;;;;;;10.20;4.40;;;9.90;99.90;;;;;;4430477;28;656922;-71
2021/09/28 02:17:51;;;;;;;8.33;4.20;;;9.80;99.90;;;;;;4447893;28;658557;-71
2021/09/28 02:20:40;;;;;;;8.70;4.10;;;9.80;99.90;;;;;;4429678;28;656272;-71
2021/09/28 02:23:28;;;;;;;9.60;4.23;;;9.80;99.90;;;;;;4433502;28;656301;-71
2021/09/28 02:26:15;;;;;;;9.30;4.20;;;9.70;99.90;;;;;;4447113;28;657613;-71
2021/09/28 02:29:05;;;;;;;11.97;4.20;;;9.70;99.90;;;;;;4430567;28;657080;-71
2021/09/28 02:31:53;;;;;;;12.77;4.13;;;9.70;99.90;;;;;;4414540;28;657863;-70
2021/09/28 02:34:40;;;;;;;10.03;4.20;;;9.70;99.90;;;;;;4428567;28;658702;-72
2021/09/28 02:37:28;;;;;;;8.18;4.00;;;9.60;99.90;;;;;;4410507;28;657515;-70
2021/09/28 02:40:15;;;;;;;8.93;3.63;;;9.60;99.90;;;;;;4435760;28;656194;-72
2021/09/28 02:43:03;;;;;;;8.90;4.30;;;9.60;99.90;;;;;;4426369;28;656724;-71
2021/09/28 02:45:52;;;;;;;10.53;3.90;;;9.60;99.90;;;;;;4448871;28;656745;-72
2021/09/28 02:48:40;;;;;;;9.77;3.80;;;9.50;99.90;;;;;;4427976;28;658738;-72
2021/09/28 02:51:28;;;;;;;7.87;3.70;;;9.50;99.90;;;;;;4445737;28;656683;-71
2021/09/28 02:54:15;;;;;;;7.23;3.90;;;9.50;99.90;;;;;;4446022;28;656878;-72
2021/09/28 02:57:03;;;;;;;9.47;4.27;;;9.50;99.90;;;;;;4429982;28;656726;-71
2021/09/28 02:59:50;;;;;;;11.17;4.20;;;9.50;99.90;;;;;;4447876;28;657751;-71
2021/09/28 03:02:39;;;;;;;9.40;4.23;;;9.40;99.90;;;;;;4427732;28;657818;-71
2021/09/28 03:05:27;;;;;;;6.73;4.10;;;9.40;99.90;;;;;;4446980;28;656616;-71
2021/09/28 03:08:14;;;;;;;6.20;4.00;;;9.40;99.90;;;;;;4427412;28;656218;-72
2021/09/28 03:11:02;;;;;;;8.00;3.80;;;9.40;99.90;;;;;;4444833;28;656670;-72
2021/09/28 03:13:49;;;;;;;7.67;3.93;;;9.40;99.90;;;;;;4427994;28;656701;-72
2021/09/28 03:16:37;;;;;;;6.30;3.70;;;9.30;99.90;;;;;;4447384;28;656672;-72
2021/09/28 03:19:26;;;;;;;6.43;3.80;;;9.30;99.90;;;;;;4425437;28;657405;-71
2021/09/28 03:22:13;;;;;;;8.93;3.60;;;9.20;99.90;;;;;;4427165;28;657118;-71
2021/09/28 03:25:01;;;;;;;7.57;3.97;;;9.20;99.90;;;;;;4448332;28;657448;-71
2021/09/28 03:27:48;;;;;;;11.63;5.30;;;9.10;99.90;;;;;;4428914;28;656795;-71
2021/09/28 03:30:37;;;;;;;11.60;4.60;;;9.10;99.90;;;;;;4445573;28;658182;-71
2021/09/28 03:33:24;;;;;;;15.77;5.33;;;9.10;99.90;;;;;;4423705;28;658771;-71
2021/09/28 03:36:13;;;;;;;13.97;4.77;;;9.10;99.90;;;;;;4444501;28;657832;-71
2021/09/28 03:39:01;;;;;;;16.03;5.20;;;9.10;99.90;;;;;;4420252;28;658897;-71
2021/09/28 03:41:48;;;;;;;12.40;5.17;;;9.10;99.90;;;;;;4426849;28;657730;-71
2021/09/28 03:44:36;;;;;;;11.27;4.80;;;9.10;99.90;;;;;;4446524;28;657399;-72
2021/09/28 03:47:24;;;;;;;11.27;4.53;;;9.10;99.90;;;;;;4426837;28;657948;-71
2021/09/28 03:50:11;;;;;;;9.63;4.20;;;9.10;99.90;;;;;;4443522;28;658438;-71
2021/09/28 03:53:00;;;;;;;10.90;4.13;;;9.00;99.90;;;;;;4424857;28;656648;-71
2021/09/28 03:55:48;;;;;;;13.30;4.80;;;8.80;99.90;;;;;;4426888;28;657823;-70
2021/09/28 03:58:35;;;;;;;13.53;4.63;;;8.80;99.90;;;;;;4434194;28;658398;-71
2021/09/28 04:01:23;;;;;;;13.83;4.57;;;8.80;99.90;;;;;;4411467;28;657454;-70
2021/09/28 04:04:10;;;;;;;11.07;5.33;;;8.70;99.90;;;;;;4447575;28;658288;-71
2021/09/28 04:06:59;;;;;;;13.13;5.07;;;8.70;99.90;;;;;;4417142;28;657254;-71
2021/09/28 04:09:48;;;;;;;10.53;4.30;;;8.70;99.90;;;;;;4432851;28;657612;-72
2021/09/28 04:12:35;;;;;;;7.67;4.07;;;8.80;99.90;;;;;;4407889;28;659115;-71
2021/09/28 04:15:25;;;;;;;7.70;4.30;;;8.80;99.90;;;;;;4416497;28;656525;-71
2021/09/28 04:18:13;;;;;;;12.90;4.30;;;8.80;99.90;;;;;;4420293;28;656252;-70
2021/09/28 04:21:01;;;;;;;7.47;4.13;;;8.80;99.90;;;;;;4434916;28;657532;-71
2021/09/28 04:24:31;;;;;;;9.53;4.57;;;8.80;99.90;;;;;;4405792;28;656705;-71
2021/09/28 04:27:20;;;;;;;8.57;4.17;;;8.80;99.90;;;;;;4407185;28;656565;-70
2021/09/28 04:30:09;;;;;;;8.27;4.25;;;8.80;99.90;;;;;;4415506;28;657255;-69
2021/09/28 04:32:56;;;;;;;11.27;4.50;;;8.80;99.90;;;;;;4430669;28;657965;-70
2021/09/28 04:35:44;;;;;;;11.80;4.43;;;8.80;99.90;;;;;;4404616;28;657719;-70
2021/09/28 04:38:31;;;;;;;10.37;5.23;;;8.80;99.90;;;;;;4432525;28;657521;-70
2021/09/28 04:41:19;;;;;;;12.93;4.43;;;8.70;99.90;;;;;;4411738;28;657788;-70
2021/09/28 04:44:08;;;;;;;9.13;4.67;;;8.70;99.90;;;;;;4431522;28;658376;-70
2021/09/28 04:46:55;;;;;;;6.97;4.00;;;8.70;99.90;;;;;;4413569;28;657469;-70
2021/09/28 04:49:43;;;;;;;8.83;4.07;;;8.70;99.90;;;;;;4418656;28;656694;-70
2021/09/28 04:52:30;;;;;;;8.80;4.37;;;8.80;99.90;;;;;;4431309;28;657178;-70
2021/09/28 04:55:18;;;;;;;8.73;3.80;;;8.80;99.90;;;;;;4412264;28;656762;-70
2021/09/28 04:58:05;;;;;;;11.87;4.67;;;8.80;99.90;;;;;;4432363;28;657958;-70
2021/09/28 05:00:55;;;;;;;7.07;4.27;;;8.80;99.90;;;;;;4414875;28;657655;-69
2021/09/28 05:03:46;;;;;;;7.90;4.13;;;8.90;99.90;;;;;;4437467;28;656842;-70
2021/09/28 05:06:34;;;;;;;9.73;4.43;;;8.90;99.90;;;;;;4393865;28;657766;-70
2021/09/28 05:09:22;;;;;;;8.23;3.83;;;8.90;99.90;;;;;;4432972;28;656821;-70
2021/09/28 05:12:10;;;;;;;7.13;4.00;;;8.90;99.90;;;;;;4414508;28;656810;-69
2021/09/28 05:14:58;;;;;;;8.90;4.13;;;8.90;99.90;;;;;;4416032;28;656786;-69
2021/09/28 05:17:47;;;;;;;6.30;4.07;;;9.00;99.90;;;;;;4436095;28;658059;-70
2021/09/28 05:20:35;;;;;;;8.37;4.63;;;9.00;99.90;;;;;;4409518;28;657347;-70
2021/09/28 05:23:23;;;;;;;10.53;4.17;;;9.10;99.90;;;;;;4430909;28;656665;-69
2021/09/28 05:26:10;;;;;;;8.27;4.50;;;9.10;99.90;;;;;;4449758;28;659142;-70
2021/09/28 05:28:58;;;;;;;7.17;4.00;;;9.20;99.90;;;;;;4431696;28;656904;-69
2021/09/28 05:31:45;;;;;;;8.67;3.93;;;9.30;99.90;;;;;;4448386;28;658343;-70
2021/09/28 05:34:34;;;;;;;9.55;4.75;;;9.40;99.90;;;;;;4428260;28;656942;-69
2021/09/28 05:37:22;;;;;;;9.93;4.50;;;9.50;99.90;;;;;;4449220;28;657082;-70
2021/09/28 05:40:10;;;;;;;10.20;5.30;;;9.70;99.90;;;;;;4427050;28;657081;-70
2021/09/28 05:42:58;;;;;;;15.13;5.87;;;9.80;99.90;;;;;;4429602;28;657984;-68
2021/09/28 05:45:45;;;;;;;10.47;4.97;;;10.00;99.90;;;;;;4448879;28;658017;-69
2021/09/28 05:48:33;;;;;;;13.27;5.82;;;10.00;99.90;;;;;;4425570;28;658537;-69
2021/09/28 05:51:23;;;;;;;9.00;4.70;;;10.20;99.90;;;;;;4447365;28;659732;-70
2021/09/28 05:54:17;;;;;;;14.40;4.50;;;10.30;99.90;;;;;;4427809;28;658809;-70
2021/09/28 05:57:05;;;;;;;8.10;4.43;;;10.50;99.90;;;;;;4406002;28;660432;-70
2021/09/28 05:59:53;;;;;;;15.90;4.00;;;10.60;99.90;;;;;;4436170;28;657497;-70
2021/09/28 06:02:40;;;;;;;11.47;4.30;;;10.70;99.90;;;;;;4428867;28;659680;-70
2021/09/28 06:05:28;;;;;;;8.15;4.22;;;10.80;99.90;;;;;;4411226;28;658801;-70
2021/09/28 06:08:17;;;;;;;8.60;4.17;;;10.80;99.90;;;;;;4449458;28;657889;-70
2021/09/28 06:11:04;;;;;;;10.20;4.07;;;10.90;99.90;;;;;;4397981;28;658814;-70
2021/09/28 06:13:52;;;;;;;5.70;3.87;;;11.00;99.90;;;;;;4429444;28;658239;-70
2021/09/28 06:16:40;;;;;;;10.30;3.60;;;11.10;99.90;;;;;;4395108;28;658929;-69
2021/09/28 06:19:28;;;;;;;10.73;4.27;;;11.20;99.90;;;;;;4415089;28;658453;-69
2021/09/28 06:22:16;;;;;;;5.67;3.30;;;11.30;99.90;;;;;;4429344;28;659108;-70
2021/09/28 06:25:05;;;;;;;11.07;4.00;;;11.50;99.90;;;;;;4414368;28;657480;-69
2021/09/28 06:27:53;;;;;;;10.07;3.57;;;11.70;99.90;;;;;;4422397;28;658685;-69
2021/09/28 06:30:42;;;;;;;6.77;3.77;;;11.70;99.90;;;;;;4443688;28;659544;-70
2021/09/28 06:33:29;;;;;;;9.20;3.63;;;11.90;99.90;;;;;;4413574;28;658818;-70
2021/09/28 06:36:17;;;;;;;8.73;3.80;;;12.00;99.90;;;;;;4444252;28;658117;-70
2021/09/28 06:39:05;;;;;;;8.47;4.00;;;12.10;99.90;;;;;;4418823;28;659108;-70
2021/09/28 06:41:54;;;;;;;8.63;3.87;;;12.20;99.90;;;;;;4432103;28;658017;-69
2021/09/28 06:44:42;;;;;;;8.00;3.27;;;12.20;99.90;;;;;;4423530;28;658877;-70
2021/09/28 06:47:30;;;;;;;11.23;3.73;;;12.30;99.90;;;;;;4404853;28;658838;-70
2021/09/28 06:50:17;;;;;;;7.97;3.10;;;12.40;99.90;;;;;;4429924;28;659051;-70
2021/09/28 06:53:05;;;;;;;7.00;3.40;;;12.50;99.90;;;;;;4414362;28;658149;-70
2021/09/28 06:55:53;;;;;;;9.73;3.60;;;12.70;99.90;;;;;;4429207;28;657529;-69
2021/09/28 06:58:42;;;;;;;7.73;3.10;;;12.80;99.90;;;;;;4430866;28;657933;-71
2021/09/28 07:01:31;;;;;;;5.40;3.30;;;12.70;47.60;;;;;;4406268;28;657793;-70
2021/09/28 07:04:20;;;;;;;6.65;3.25;;;12.70;1.00;;;;;;4408749;28;657592;-70
2021/09/28 07:07:08;;;;;;;7.93;3.97;;;12.70;1.00;;;;;;4433210;28;657348;-70
2021/09/28 07:09:57;;;;;;;7.47;4.43;;;12.80;1.00;;;;;;4410742;28;658126;-70
2021/09/28 07:12:45;;;;;;;12.07;4.63;;;12.80;1.00;;;;;;4395519;28;657575;-70
2021/09/28 07:15:35;;;;;;;7.32;3.60;;;12.80;1.00;;;;;;4408785;28;657895;-70
2021/09/28 07:18:23;;;;;;;7.07;3.57;;;12.90;1.00;;;;;;4413457;28;657139;-69
2021/09/28 07:21:12;;;;;;;6.00;3.27;;;13.00;1.00;;;;;;4432969;28;657107;-70
2021/09/28 07:24:01;;;;;;;6.27;3.50;;;13.10;1.00;;;;;;4410948;28;657327;-70
2021/09/28 07:26:49;;;;;;;6.87;3.33;;;13.20;99.90;;;;;;4390326;28;656552;-69
2021/09/28 07:29:38;;;;;;;7.20;3.75;;;13.30;99.90;;;;;;4425445;28;657522;-72
2021/09/28 07:32:28;;;;;;;5.30;3.20;;;13.60;99.90;;;;;;4424177;28;658551;-71
2021/09/28 07:35:16;;;;;;;9.07;3.13;;;13.90;99.90;;;;;;4424037;28;657905;-71
2021/09/28 07:38:04;;;;;;;7.07;3.30;;;14.20;99.90;;;;;;4427649;28;657646;-71
2021/09/28 07:40:52;;;;;;;8.40;3.20;;;14.40;99.90;;;;;;4448814;28;657668;-71
2021/09/28 07:43:40;;;;;;;5.33;3.20;;;14.60;99.90;;;;;;4424620;28;658328;-71
2021/09/28 07:46:29;;;;;;;10.87;3.30;;;14.70;99.90;;;;;;4429309;28;658199;-72
2021/09/28 07:49:19;;;;;;;11.10;3.40;;;14.90;99.90;;;;;;4448813;28;658279;-71
2021/09/28 07:52:07;;;;;;;11.93;3.17;;;15.20;99.90;;;;;;4423282;28;658625;-71
2021/09/28 07:54:55;;;;;;;7.80;3.27;;;15.20;99.90;;;;;;4426731;28;659872;-71
2021/09/28 07:57:43;;;;;;;6.13;3.57;;;15.30;99.90;;;;;;4425803;28;658148;-72
2021/09/28 08:00:31;;;;;;;6.50;3.00;;;15.30;99.90;;;;;;4447363;28;658743;-71
2021/09/28 08:03:20;;;;;;;6.90;3.58;;;15.50;99.90;;;;;;4428175;28;658741;-71
2021/09/28 08:06:10;;;;;;;4.37;3.10;;;15.70;99.90;;;;;;4436190;28;658400;-72
2021/09/28 08:08:59;;;;;;;10.63;3.03;;;15.80;99.90;;;;;;4435997;28;657808;-71
2021/09/28 08:11:47;;;;;;;9.07;3.20;;;15.90;99.90;;;;;;4446780;28;659558;-72
2021/09/28 08:14:35;;;;;;;8.13;3.20;;;16.10;99.90;;;;;;4416153;28;658097;-72
2021/09/28 08:17:23;;;;;;;9.40;3.07;;;16.10;99.90;;;;;;4415627;28;657727;-71
2021/09/28 08:20:16;;;;;;;8.60;3.20;;;16.30;99.90;;;;;;4422083;28;659278;-72
2021/09/28 08:23:06;;;;;;;6.50;3.10;;;16.40;99.90;;;;;;4386586;28;657438;-72
2021/09/28 08:29:10;;;;;;;4.90;2.70;;;17.10;99.90;;;;;;4376540;28;658123;-72
2021/09/28 08:31:58;;;;;;;9.83;3.47;;;17.60;99.90;;;;;;4383753;28;658059;-72
2021/09/28 08:34:46;;;;;;;10.27;3.53;;;17.90;99.90;;;;;;4427155;28;658008;-72
2021/09/28 08:37:37;;;;;;;8.93;3.60;;;18.20;99.90;;;;;;4409755;28;658558;-72
2021/09/28 08:40:31;;;;;;;6.27;3.37;;;18.30;99.90;;;;;;4405315;28;658735;-72
2021/09/28 08:43:20;;;;;;;6.80;3.20;;;18.20;99.90;;;;;;4382771;28;658352;-71
2021/09/28 08:46:09;;;;;;;8.90;3.20;;;18.00;99.90;;;;;;4542190;28;658982;-72
2021/09/28 08:48:57;;;;;;;5.63;3.10;;;18.10;99.90;;;;;;4413938;28;657440;-72
2021/09/28 08:51:45;;;;;;;10.33;3.30;;;18.30;99.90;;;;;;4434384;28;657710;-72
2021/09/28 08:54:34;;;;;;;6.60;2.73;;;18.20;99.90;;;;;;4417658;28;659380;-72
2021/09/28 08:57:23;;;;;;;3.67;2.90;;;18.40;99.90;;;;;;4756574;28;658760;-71
2021/09/28 09:00:25;;;;;;;6.90;2.97;;;18.70;99.90;;;;;;5080560;28;20199;-72
2021/09/28 09:03:28;;;;;;;15.10;3.47;;;18.80;99.90;;;;;;5074336;28;20665;-72
2021/09/28 09:06:17;;;;;;;10.83;3.40;;;18.60;99.90;;;;;;5083780;28;20207;-72
2021/09/28 09:09:05;;;;;;;7.23;3.60;;;18.60;99.90;;;;;;5077102;28;20208;-72
2021/09/28 09:11:53;;;;;;;11.07;3.50;;;18.80;99.90;;;;;;5082151;28;20197;-71
2021/09/28 09:14:43;;;;;;;12.07;3.37;;;18.80;99.90;;;;;;5067390;28;20685;-72
2021/09/28 09:17:31;;;;;;;11.73;3.80;;;18.60;99.90;;;;;;4848208;28;534173;-71
2021/09/28 09:20:29;;;;;;;6.40;3.30;;;18.70;99.90;;;;;;4424047;28;658511;-71
2021/09/28 09:23:24;;;;;;;6.67;3.80;;;18.60;99.90;;;;;;4405325;28;657704;-71
2021/09/28 09:26:14;;;;;;;8.73;3.67;;;18.60;99.90;;;;;;4401838;28;658198;-72
2021/09/28 09:29:03;;;;;;;5.43;3.50;;;18.90;99.90;;;;;;4407684;28;658717;-72
2021/09/28 09:31:55;;;;;;;12.67;4.20;;;19.40;99.90;;;;;;4407443;28;657983;-72
2021/09/28 09:34:54;;;;;;;8.83;3.57;;;19.80;99.90;;;;;;4397547;28;659471;-72
2021/09/28 09:37:43;;;;;;;6.90;3.33;;;20.20;99.90;;;;;;4402486;28;657638;-71
2021/09/28 09:40:36;;;;;;;6.10;3.37;;;20.30;99.90;;;;;;4417686;28;659041;-72
2021/09/28 09:43:30;;;;;;;8.33;3.40;;;20.50;99.90;;;;;;4397258;28;657473;-72
2021/09/28 09:46:19;;;;;;;12.17;3.80;;;20.90;99.90;;;;;;4404073;28;658759;-71
2021/09/28 09:49:10;;;;;;;7.90;3.87;;;21.30;99.90;;;;;;4396912;28;659826;-72
2021/09/28 09:52:03;;;;;;;12.30;4.50;;;21.20;99.90;;;;;;4399243;28;658827;-72
2021/09/28 09:54:51;;;;;;;12.43;4.10;;;21.50;99.90;;;;;;4379883;28;658825;-71
2021/09/28 09:57:41;;;;;;;7.50;4.03;;;21.90;99.90;;;;;;4423106;28;658852;-72
2021/09/28 10:00:30;;;;;;;15.90;4.40;;;22.20;99.90;;;;;;4404463;28;658179;-72
2021/09/28 10:03:18;;;;;;;6.97;3.80;;;22.20;99.90;;;;;;4486436;28;659519;-72
2021/09/28 10:06:08;;;;;;;13.87;3.83;;;22.40;99.90;;;;;;4786524;28;551995;-72
2021/09/28 10:08:57;;;;;;;10.53;3.70;;;22.70;99.90;;;;;;4542729;28;659271;-72
2021/09/28 10:11:45;;;;;;;7.00;3.53;;;23.20;99.90;;;;;;4886158;28;535242;-72
2021/09/28 10:14:35;;;;;;;6.20;3.33;;;22.90;99.90;;;;;;4427998;28;658807;-72
2021/09/28 10:17:43;;;;;;;8.23;3.83;;;22.80;99.90;;;;;;4413532;28;658371;-72
2021/09/28 10:20:32;;;;;;;9.67;3.70;;;22.90;99.90;;;;;;4395862;28;657594;-71
2021/09/28 10:23:24;;;;;;;15.33;4.03;;;22.80;99.90;;;;;;4433888;28;657300;-72
2021/09/28 10:26:16;;;;;;;8.30;3.67;;;23.00;99.90;;;;;;4412255;28;659044;-72
2021/09/28 10:29:22;;;;;;;9.27;3.57;;;22.80;99.90;;;;;;4403605;28;658453;-71
2021/09/28 10:32:43;;;;;;;10.53;3.73;;;23.00;99.90;;;;;;4403784;28;658324;-72
2021/09/28 10:35:32;;;;;;;14.25;4.22;;;23.40;99.90;;;;;;4395655;28;658468;-72
2021/09/28 10:38:22;;;;;;;8.50;3.67;;;23.70;99.90;;;;;;4436509;28;658347;-72
2021/09/28 10:41:10;;;;;;;15.25;4.25;;;24.10;99.90;;;;;;4412804;28;657884;-72
2021/09/28 10:44:34;;;;;;;10.00;3.75;;;24.10;99.90;;;;;;4424162;28;659758;-71
2021/09/28 10:47:43;;;;;;;9.38;3.53;;;24.10;99.90;;;;;;4306224;28;659859;-72
2021/09/28 10:50:32;;;;;;;5.85;3.38;;;24.10;99.90;;;;;;4316427;28;658927;-71
2021/09/28 10:53:36;;;;;;;10.32;4.15;;;23.70;99.90;;;;;;4361686;28;657116;-71
2021/09/28 10:56:24;;;;;;;11.45;3.90;;;23.40;99.90;;;;;;4332818;28;659344;-72
2021/09/28 10:59:13;;;;;;;12.45;4.00;;;23.60;99.90;;;;;;4332465;28;658559;-71
2021/09/28 11:02:08;;;;;;;8.82;3.70;;;23.80;99.90;;;;;;4334725;28;659317;-71
2021/09/28 11:05:24;;;;;;;7.07;2.90;;;24.30;99.90;;;;;;4327269;28;658293;-71
2021/09/28 11:08:12;;;;;;;13.85;3.75;;;24.30;98.00;;;;;;4328848;28;657935;-71
2021/09/28 11:11:01;;;;;;;8.80;3.80;;;24.30;98.00;;;;;;4346066;28;658995;-71
2021/09/28 11:13:49;;;;;;;7.63;3.58;;;24.50;96.80;;;;;;4332721;28;657851;-71
2021/09/28 11:16:40;;;;;;;12.52;4.10;;;24.60;97.60;;;;;;4335795;28;658203;-71
2021/09/28 11:19:35;;;;;;;11.48;3.85;;;24.50;97.00;;;;;;4326340;28;658673;-71
2021/09/28 11:22:23;;;;;;;9.45;3.88;;;24.70;97.40;;;;;;4299596;28;658799;-71
2021/09/28 11:25:15;;;;;;;10.38;4.07;;;24.90;95.80;;;;;;4325907;28;657763;-71
2021/09/28 11:28:05;;;;;;;16.55;4.07;;;25.00;94.50;;;;;;4405195;28;659745;-71
2021/09/28 11:30:53;;;;;;;10.57;3.88;;;24.90;94.20;;;;;;4409091;28;659506;-71
2021/09/28 11:33:41;;;;;;;7.35;3.70;;;24.60;94.20;;;;;;4411279;28;659216;-71
2021/09/28 11:36:33;;;;;;;8.07;3.45;;;24.30;94.70;;;;;;4433994;28;658718;-72
2021/09/28 11:39:21;;;;;;;14.50;3.85;;;24.20;95.70;;;;;;4392053;28;657616;-72
2021/09/28 11:42:09;;;;;;;10.82;4.05;;;23.50;95.60;;;;;;4441636;28;658805;-71
2021/09/28 11:44:59;;;;;;;7.18;3.90;;;23.50;96.00;;;;;;4417944;28;658853;-71
2021/09/28 11:47:46;;;;;;;13.15;4.30;;;23.60;96.30;;;;;;4407175;28;657626;-71
2021/09/28 11:50:34;;;;;;;9.50;3.92;;;23.70;96.00;;;;;;4437710;28;659346;-71
2021/09/28 11:53:21;;;;;;;7.07;4.10;;;23.50;96.20;;;;;;4411399;28;657417;-72
2021/09/28 11:56:09;;;;;;;11.10;3.88;;;23.20;96.40;;;;;;4429367;28;657644;-71
2021/09/28 11:58:56;;;;;;;9.05;3.80;;;23.20;96.20;;;;;;4407446;28;658562;-71
2021/09/28 12:01:46;;;;;;;10.13;4.00;;;22.90;97.10;;;;;;4435406;28;659715;-71
2021/09/28 12:04:53;;;;;;;12.77;4.35;;;22.70;96.60;;;;;;4411939;28;658801;-71
2021/09/28 12:08:01;;;;;;;14.80;5.00;;;22.30;97.30;;;;;;4394089;28;658324;-71
2021/09/28 12:10:48;;;;;;;11.90;4.50;;;22.10;97.90;;;;;;4404666;28;659118;-71
2021/09/28 12:13:36;;;;;;;8.87;4.33;;;21.90;98.30;;;;;;4409793;28;659770;-71
2021/09/28 12:16:23;;;;;;;13.07;3.63;;;21.60;97.90;;;;;;4436558;28;658259;-71
2021/09/28 12:19:12;;;;;;;7.20;3.40;;;21.60;99.40;;;;;;4422535;28;659179;-71
2021/09/28 12:22:00;;;;;;;10.50;3.63;;;21.70;98.90;;;;;;4443891;28;658048;-71
2021/09/28 12:24:49;;;;;;;10.57;3.87;;;21.50;98.20;;;;;;4417270;28;659164;-71
2021/09/28 12:27:37;;;;;;;9.13;3.47;;;21.40;98.30;;;;;;4421811;28;659068;-71
2021/09/28 12:30:25;;;;;;;7.77;3.97;;;21.30;97.80;;;;;;4448256;28;658037;-71
2021/09/28 12:33:14;;;;;;;12.00;4.67;;;21.10;97.70;;;;;;4421726;28;658954;-71
2021/09/28 12:36:04;;;;;;;11.03;4.60;;;21.00;98.00;;;;;;4408977;28;659890;-71
2021/09/28 12:39:12;;;;;;;9.35;4.00;;;20.80;98.30;;;;;;4409349;28;658962;-71
2021/09/28 12:42:07;;;;;;;10.87;4.07;;;20.70;98.70;;;;;;4411066;28;657413;-71
2021/09/28 12:44:58;;;;;;;9.67;4.20;;;20.80;99.00;;;;;;4422560;28;659185;-71
2021/09/28 12:47:48;;;;;;;10.17;3.97;;;20.90;99.60;;;;;;4388201;28;657840;-71
2021/09/28 12:50:37;;;;;;;7.03;3.90;;;21.40;99.50;;;;;;4410444;28;658639;-71
2021/09/28 12:53:28;;;;;;;12.33;3.73;;;22.20;99.40;;;;;;4439467;28;657172;-71
2021/09/28 12:56:16;;;;;;;12.17;3.87;;;23.00;98.60;;;;;;4411545;28;658634;-71
2021/09/28 12:59:04;;;;;;;12.67;4.40;;;23.40;96.90;;;;;;4445222;28;659363;-71
2021/09/28 13:01:52;;;;;;;11.57;4.60;;;23.40;95.70;;;;;;4423345;28;658526;-71
2021/09/28 13:04:39;;;;;;;13.03;4.63;;;23.20;94.60;;;;;;4448620;28;658998;-71
2021/09/28 13:07:27;;;;;;;11.93;4.07;;;23.10;95.40;;;;;;4415260;28;658490;-72
2021/09/28 13:10:16;;;;;;;11.33;3.97;;;22.70;95.10;;;;;;4424062;28;658505;-71
2021/09/28 13:13:03;;;;;;;7.20;3.80;;;22.50;95.70;;;;;;4398881;28;659560;-71
2021/09/28 13:15:51;;;;;;;9.67;3.90;;;22.60;96.00;;;;;;4416058;28;657707;-71
2021/09/28 13:18:39;;;;;;;15.73;3.60;;;22.60;96.10;;;;;;4437200;28;657827;-71
2021/09/28 13:21:27;;;;;;;9.90;3.90;;;22.50;96.60;;;;;;4418646;28;659787;-71
2021/09/28 13:24:14;;;;;;;13.10;3.77;;;22.40;95.90;;;;;;4438074;28;657079;-71
2021/09/28 13:27:04;;;;;;;9.83;4.00;;;22.40;96.30;;;;;;4430040;28;658504;-71
2021/09/28 13:29:51;;;;;;;8.67;4.33;;;22.20;95.80;;;;;;4436320;28;657603;-71
2021/09/28 13:32:39;;;;;;;15.13;5.10;;;22.00;96.30;;;;;;4467554;28;658500;-71
2021/09/28 13:35:27;;;;;;;7.23;4.00;;;21.80;97.10;;;;;;4446735;28;659107;-72
2021/09/28 13:38:15;;;;;;;16.03;4.10;;;21.60;96.90;;;;;;4466762;28;658545;-71
2021/09/28 13:41:02;;;;;;;13.47;3.20;;;21.50;97.00;;;;;;4431347;28;660352;-71
2021/09/28 13:43:51;;;;;;;8.13;3.60;;;21.30;97.60;;;;;;4445576;28;659837;-71
2021/09/28 13:46:39;;;;;;;9.63;3.67;;;21.40;98.20;;;;;;4421565;28;658863;-71
2021/09/28 13:49:27;;;;;;;5.67;3.40;;;21.50;98.70;;;;;;4428949;28;657392;-71
2021/09/28 13:52:14;;;;;;;8.23;3.73;;;21.50;99.40;;;;;;4443677;28;657908;-71
2021/09/28 13:55:02;;;;;;;12.27;4.00;;;21.70;98.00;;;;;;4417817;28;657834;-71
2021/09/28 13:57:49;;;;;;;10.27;4.23;;;22.50;97.40;;;;;;4437424;28;658351;-71
2021/09/28 14:00:38;;;;;;;7.17;3.87;;;23.00;96.50;;;;;;4411457;28;658849;-71
2021/09/28 14:03:26;;;;;;;11.03;3.90;;;23.30;95.10;;;;;;4424248;28;658228;-71
2021/09/28 14:06:17;;;;;;;10.33;4.00;;;23.90;94.70;;;;;;4436395;28;660109;-71
2021/09/28 14:09:06;;;;;;;7.97;4.57;;;24.80;93.60;;;;;;4419716;28;659061;-71
2021/09/28 14:11:53;;;;;;;9.07;4.10;;;26.00;91.00;;;;;;4448419;28;658241;-71
2021/09/28 14:14:41;;;;;;;14.17;5.20;;;26.90;88.40;;;;;;4424806;28;657441;-71
2021/09/28 14:17:30;;;;;;;9.33;4.60;;;26.80;86.50;;;;;;4437806;28;658990;-71
2021/09/28 14:20:17;;;;;;;9.13;4.30;;;27.10;83.10;;;;;;4418217;28;657889;-71
2021/09/28 14:23:06;;;;;;;7.80;4.60;;;27.60;78.10;;;;;;4443461;28;657689;-71
2021/09/28 14:25:53;;;;;;;9.98;4.80;;;27.40;77.20;;;;;;4446959;28;658011;-71
2021/09/28 14:28:41;;;;;;;8.80;4.60;;;28.40;76.20;;;;;;4428883;28;657619;-71
2021/09/28 14:31:28;;;;;;;12.13;6.05;;;29.40;71.30;;;;;;4453534;28;658314;-72